createdAt,value
2023-07-18T00:00:46.819Z,24.05
2023-07-18T00:03:15.993Z,24.01
2023-07-18T00:05:47.169Z,23.97
2023-07-18T00:08:14.849Z,23.93
2023-07-18T00:10:43.118Z,23.89
2023-07-18T00:13:10.241Z,23.87
2023-07-18T00:15:38.199Z,23.85
2023-07-18T00:18:05.493Z,23.85
2023-07-18T00:20:32.867Z,23.85
2023-07-18T00:23:06.774Z,23.83
2023-07-18T00:25:33.617Z,23.80
2023-07-18T00:28:00.417Z,23.78
2023-07-18T00:30:27.649Z,23.77
2023-07-18T00:32:59.716Z,23.74
2023-07-18T00:35:27.650Z,23.69
2023-07-18T00:37:54.399Z,23.64
2023-07-18T00:40:21.801Z,23.58
2023-07-18T00:42:50.152Z,23.54
2023-07-18T00:45:21.518Z,23.53
2023-07-18T00:47:48.927Z,23.54
2023-07-18T00:50:18.743Z,23.54
2023-07-18T00:52:51.274Z,23.53
2023-07-18T00:55:18.847Z,23.53
2023-07-18T00:57:46.584Z,23.51
2023-07-18T01:00:13.886Z,23.49
2023-07-18T01:02:43.108Z,23.45
2023-07-18T01:05:10.345Z,23.43
2023-07-18T01:07:38.363Z,23.41
2023-07-18T01:10:17.953Z,23.39
2023-07-18T01:12:46.600Z,23.36
2023-07-18T01:15:13.751Z,23.32
2023-07-18T01:17:43.393Z,23.26
2023-07-18T01:20:16.589Z,23.21
2023-07-18T01:22:52.214Z,23.17
2023-07-18T01:25:47.287Z,23.15
2023-07-18T01:28:39.546Z,23.10
2023-07-18T01:31:06.341Z,23.06
2023-07-18T01:33:33.834Z,23.01
2023-07-18T01:36:01.285Z,22.93
2023-07-18T01:38:29.886Z,22.88
2023-07-18T01:40:57.609Z,22.88
2023-07-18T01:43:25.086Z,22.88
2023-07-18T01:45:51.828Z,22.90
2023-07-18T01:48:19.900Z,22.91
2023-07-18T01:50:46.820Z,22.93
2023-07-18T01:53:13.620Z,22.94
2023-07-18T01:55:41.397Z,22.96
2023-07-18T01:58:08.208Z,22.98
2023-07-18T02:00:36.493Z,23.00
2023-07-18T02:03:03.750Z,23.00
2023-07-18T02:05:33.405Z,23.02
2023-07-18T02:08:00.444Z,23.02
2023-07-18T02:10:27.624Z,23.01
2023-07-18T02:12:54.943Z,23.01
2023-07-18T02:15:22.134Z,23.01
2023-07-18T02:17:49.375Z,23.01
2023-07-18T02:20:17.390Z,23.02
2023-07-18T02:22:45.378Z,23.03
2023-07-18T02:25:12.376Z,23.05
2023-07-18T02:27:40.053Z,23.06
2023-07-18T02:30:11.060Z,23.06
2023-07-18T02:32:39.785Z,23.06
2023-07-18T02:35:08.264Z,23.06
2023-07-18T02:37:37.438Z,23.06
2023-07-18T02:40:13.822Z,23.06
2023-07-18T02:42:41.566Z,23.07
2023-07-18T02:45:09.440Z,23.07
2023-07-18T02:47:36.041Z,23.06
2023-07-18T02:50:03.447Z,23.06
2023-07-18T02:52:32.407Z,23.06
2023-07-18T02:54:59.496Z,23.06
2023-07-18T02:57:26.867Z,23.05
2023-07-18T02:59:53.870Z,23.04
2023-07-18T03:02:21.349Z,23.04
2023-07-18T03:04:48.289Z,23.03
2023-07-18T03:07:18.518Z,23.03
2023-07-18T03:09:46.103Z,23.02
2023-07-18T03:12:14.973Z,23.01
2023-07-18T03:14:42.397Z,23.01
2023-07-18T03:17:09.232Z,23.00
2023-07-18T03:19:36.379Z,22.97
2023-07-18T03:22:02.986Z,22.97
2023-07-18T03:24:35.025Z,22.98
2023-07-18T03:30:54.537Z,23.01
2023-07-18T03:33:21.993Z,23.03
2023-07-18T03:39:34.376Z,23.09
2023-07-18T03:42:01.425Z,23.12
2023-07-18T03:44:28.757Z,23.16
2023-07-18T03:47:05.648Z,23.19
2023-07-18T03:49:42.173Z,23.23
2023-07-18T03:52:09.101Z,23.29
2023-07-18T03:54:35.934Z,23.40
2023-07-18T03:57:03.801Z,23.61
2023-07-18T03:59:32.366Z,23.90
2023-07-18T04:01:59.955Z,24.20
2023-07-18T04:04:28.136Z,24.50
2023-07-18T04:06:55.087Z,24.79
2023-07-18T04:09:21.932Z,25.05
2023-07-18T04:11:49.132Z,25.33
2023-07-18T04:14:16.590Z,25.61
2023-07-18T04:16:44.779Z,25.84
2023-07-18T04:19:11.824Z,26.01
2023-07-18T04:21:38.837Z,26.10
2023-07-18T04:24:09.766Z,26.13
2023-07-18T04:26:40.847Z,26.14
2023-07-18T04:29:08.040Z,26.17
2023-07-18T04:31:35.344Z,26.26
2023-07-18T04:34:02.145Z,26.41
2023-07-18T04:36:29.070Z,26.58
2023-07-18T04:38:55.813Z,26.75
2023-07-18T04:41:22.683Z,26.92
2023-07-18T04:43:49.847Z,27.11
2023-07-18T04:46:17.162Z,27.29
2023-07-18T04:48:44.516Z,27.44
2023-07-18T04:51:11.834Z,27.55
2023-07-18T04:53:38.909Z,27.64
2023-07-18T04:56:07.233Z,27.73
2023-07-18T04:58:34.110Z,27.82
2023-07-18T05:01:03.868Z,27.91
2023-07-18T05:03:40.933Z,28.02
2023-07-18T05:06:18.205Z,28.14
2023-07-18T05:08:45.842Z,28.26
2023-07-18T05:11:13.720Z,28.35
2023-07-18T05:13:41.569Z,28.43
2023-07-18T05:16:08.282Z,28.45
2023-07-18T05:18:34.888Z,28.53
2023-07-18T05:21:01.591Z,28.67
2023-07-18T05:23:29.302Z,28.83
2023-07-18T05:25:58.141Z,29.01
2023-07-18T05:28:24.857Z,29.23
2023-07-18T05:30:52.493Z,29.42
2023-07-18T05:33:20.675Z,29.50
2023-07-18T05:35:47.872Z,29.51
2023-07-18T05:38:14.611Z,29.40
2023-07-18T05:40:41.555Z,29.17
2023-07-18T05:43:08.604Z,28.95
2023-07-18T05:45:36.185Z,28.78
2023-07-18T05:48:04.198Z,28.67
2023-07-18T05:50:30.927Z,28.57
2023-07-18T05:52:57.630Z,28.47
2023-07-18T05:55:25.135Z,28.39
2023-07-18T05:57:52.325Z,28.33
2023-07-18T06:00:19.959Z,28.31
2023-07-18T06:02:48.730Z,28.34
2023-07-18T06:05:15.786Z,28.37
2023-07-18T06:07:44.004Z,28.41
2023-07-18T06:10:12.291Z,28.45
2023-07-18T06:12:39.523Z,28.51
2023-07-18T06:15:06.558Z,28.57
2023-07-18T06:17:36.465Z,28.62
2023-07-18T06:20:09.033Z,28.66
2023-07-18T06:22:36.149Z,28.68
2023-07-18T06:25:03.244Z,28.68
2023-07-18T06:27:31.888Z,28.67
2023-07-18T06:29:59.984Z,28.65
2023-07-18T06:32:29.555Z,28.62
2023-07-18T06:34:58.560Z,28.57
2023-07-18T06:37:28.821Z,28.53
2023-07-18T06:39:56.202Z,28.51
2023-07-18T06:42:23.215Z,28.49
2023-07-18T06:44:50.265Z,28.47
2023-07-18T06:47:17.098Z,28.47
2023-07-18T06:49:44.156Z,28.48
2023-07-18T06:52:10.782Z,28.50
2023-07-18T06:54:37.617Z,28.50
2023-07-18T06:57:05.016Z,28.50
2023-07-18T06:59:32.167Z,28.51
2023-07-18T07:01:59.723Z,28.55
2023-07-18T07:04:26.467Z,28.63
2023-07-18T07:06:53.824Z,28.70
2023-07-18T07:09:22.806Z,28.75
2023-07-18T07:11:50.062Z,28.82
2023-07-18T07:14:16.908Z,28.89
2023-07-18T07:16:45.326Z,28.98
2023-07-18T07:19:12.948Z,29.09
2023-07-18T07:21:40.479Z,29.18
2023-07-18T07:24:07.359Z,29.29
2023-07-18T07:26:34.093Z,29.41
2023-07-18T07:29:00.984Z,29.49
2023-07-18T07:31:28.418Z,29.56
2023-07-18T07:33:55.898Z,29.61
2023-07-18T07:36:22.653Z,29.63
2023-07-18T07:38:49.484Z,29.64
2023-07-18T07:41:16.524Z,29.64
2023-07-18T07:43:43.609Z,29.62
2023-07-18T07:46:10.479Z,29.61
2023-07-18T07:48:37.693Z,29.60
2023-07-18T07:51:04.978Z,29.60
2023-07-18T07:53:32.704Z,29.61
2023-07-18T07:55:59.978Z,29.62
2023-07-18T07:58:26.564Z,29.62
2023-07-18T08:00:53.266Z,29.62
2023-07-18T08:03:20.570Z,29.61
2023-07-18T08:05:47.467Z,29.61
2023-07-18T08:08:14.242Z,29.61
2023-07-18T08:10:41.151Z,29.61
2023-07-18T08:13:08.942Z,29.64
2023-07-18T08:15:36.054Z,29.67
2023-07-18T08:18:03.721Z,29.72
2023-07-18T08:20:32.307Z,29.78
2023-07-18T08:22:59.548Z,29.83
2023-07-18T08:25:27.345Z,29.89
2023-07-18T08:27:54.489Z,29.97
2023-07-18T08:30:21.757Z,30.05
2023-07-18T08:32:48.747Z,30.13
2023-07-18T08:35:15.615Z,30.19
2023-07-18T08:37:42.773Z,30.23
2023-07-18T08:40:13.230Z,30.30
2023-07-18T08:42:40.119Z,30.35
2023-07-18T08:45:07.994Z,30.40
2023-07-18T08:47:35.155Z,30.44
2023-07-18T08:50:03.650Z,30.47
2023-07-18T08:52:30.557Z,30.51
2023-07-18T08:54:58.096Z,30.56
2023-07-18T08:57:25.393Z,30.61
2023-07-18T08:59:52.804Z,30.63
2023-07-18T09:02:19.390Z,30.63
2023-07-18T09:04:47.339Z,30.62
2023-07-18T09:07:15.244Z,30.60
2023-07-18T09:09:48.344Z,30.54
2023-07-18T09:12:15.910Z,30.46
2023-07-18T09:14:43.129Z,30.39
2023-07-18T09:17:10.781Z,30.35
2023-07-18T09:19:39.366Z,30.34
2023-07-18T09:22:06.734Z,30.35
2023-07-18T09:24:36.506Z,30.37
2023-07-18T09:27:07.786Z,30.40
2023-07-18T09:29:34.839Z,30.44
2023-07-18T09:32:01.989Z,30.49
2023-07-18T09:34:28.931Z,30.53
2023-07-18T09:36:59.776Z,30.59
2023-07-18T09:39:27.929Z,30.64
2023-07-18T09:41:55.805Z,30.66
2023-07-18T09:44:32.697Z,30.64
2023-07-18T09:47:01.540Z,30.58
2023-07-18T09:49:33.322Z,30.53
2023-07-18T09:52:05.253Z,30.49
2023-07-18T09:54:32.330Z,30.45
2023-07-18T09:57:03.418Z,30.38
2023-07-18T09:59:33.422Z,30.30
2023-07-18T10:02:05.533Z,30.21
2023-07-18T10:04:35.574Z,30.15
2023-07-18T10:07:02.875Z,30.09
2023-07-18T10:09:31.231Z,30.07
2023-07-18T10:11:58.256Z,30.07
2023-07-18T10:14:28.477Z,30.05
2023-07-18T10:16:56.130Z,30.05
2023-07-18T10:19:25.122Z,30.03
2023-07-18T10:21:52.281Z,30.00
2023-07-18T10:24:22.793Z,29.99
2023-07-18T10:26:51.720Z,29.96
2023-07-18T10:29:19.355Z,29.94
2023-07-18T10:31:46.347Z,29.95
2023-07-18T10:34:15.588Z,29.96
2023-07-18T10:36:55.313Z,29.98
2023-07-18T10:39:35.508Z,29.96
2023-07-18T10:42:09.421Z,29.92
2023-07-18T10:44:39.638Z,29.89
2023-07-18T10:47:16.147Z,29.87
2023-07-18T10:49:43.571Z,29.84
2023-07-18T10:52:10.152Z,29.80
2023-07-18T10:54:37.842Z,29.76
2023-07-18T10:57:04.777Z,29.75
2023-07-18T10:59:31.924Z,29.78
2023-07-18T11:02:01.344Z,29.79
2023-07-18T11:04:28.940Z,29.78
2023-07-18T11:06:56.083Z,29.72
2023-07-18T11:09:23.222Z,29.65
2023-07-18T11:11:50.478Z,29.59
2023-07-18T11:14:19.597Z,29.51
2023-07-18T11:16:47.215Z,29.43
2023-07-18T11:19:14.648Z,29.37
2023-07-18T11:21:41.608Z,29.33
2023-07-18T11:24:08.812Z,29.28
2023-07-18T11:26:35.933Z,29.22
2023-07-18T11:29:03.840Z,29.18
2023-07-18T11:34:02.714Z,29.12
2023-07-18T11:36:31.112Z,29.08
2023-07-18T11:39:04.770Z,29.02
2023-07-18T11:41:41.154Z,28.98
2023-07-18T11:44:09.170Z,28.96
2023-07-18T11:46:39.089Z,28.92
2023-07-18T11:49:06.803Z,28.90
2023-07-18T11:51:34.064Z,28.91
2023-07-18T11:54:02.211Z,28.89
2023-07-18T11:56:32.671Z,28.89
2023-07-18T11:58:59.788Z,28.89
2023-07-18T12:01:27.659Z,28.88
2023-07-18T12:03:55.205Z,28.88
2023-07-18T12:06:22.606Z,28.87
2023-07-18T12:08:49.844Z,28.85
2023-07-18T12:11:17.436Z,28.82
2023-07-18T12:13:45.773Z,28.77
2023-07-18T12:16:12.412Z,28.72
2023-07-18T12:18:39.586Z,28.66
2023-07-18T12:21:06.226Z,28.63
2023-07-18T12:23:33.305Z,28.59
2023-07-18T12:26:00.349Z,28.55
2023-07-18T12:28:27.909Z,28.52
2023-07-18T12:30:54.829Z,28.47
2023-07-18T12:33:24.179Z,28.43
2023-07-18T12:35:51.670Z,28.38
2023-07-18T12:38:19.225Z,28.34
2023-07-18T12:40:45.964Z,28.28
2023-07-18T12:43:13.115Z,28.21
2023-07-18T12:45:41.373Z,28.16
2023-07-18T12:48:08.336Z,28.12
2023-07-18T12:50:35.219Z,28.08
2023-07-18T12:53:03.084Z,28.06
2023-07-18T12:55:30.404Z,28.08
2023-07-18T12:57:57.644Z,28.10
2023-07-18T13:00:24.493Z,28.11
2023-07-18T13:02:52.235Z,28.13
2023-07-18T13:05:19.318Z,28.12
2023-07-18T13:07:46.942Z,28.09
2023-07-18T13:10:14.718Z,28.04
2023-07-18T13:12:41.669Z,27.98
2023-07-18T13:15:09.248Z,27.93
2023-07-18T13:17:36.401Z,27.91
2023-07-18T13:20:03.533Z,27.90
2023-07-18T13:22:30.235Z,27.89
2023-07-18T13:24:56.843Z,27.87
2023-07-18T13:27:23.488Z,27.81
2023-07-18T13:29:50.754Z,27.74
2023-07-18T13:32:17.543Z,27.72
2023-07-18T13:34:44.538Z,27.69
2023-07-18T13:37:11.333Z,27.65
2023-07-18T13:39:41.385Z,27.62
2023-07-18T13:42:08.399Z,27.61
2023-07-18T13:44:35.294Z,27.62
2023-07-18T13:47:03.660Z,27.64
2023-07-18T13:52:03.056Z,27.66
2023-07-18T13:54:30.298Z,27.64
2023-07-18T13:56:57.168Z,27.59
2023-07-18T13:59:23.872Z,27.55
2023-07-18T14:01:51.104Z,27.51
2023-07-18T14:04:18.206Z,27.49
2023-07-18T14:06:45.732Z,27.47
2023-07-18T14:09:13.027Z,27.47
2023-07-18T14:11:41.159Z,27.45
2023-07-18T14:14:09.027Z,27.42
2023-07-18T14:16:35.760Z,27.38
2023-07-18T14:19:02.711Z,27.36
2023-07-18T14:21:29.865Z,27.35
2023-07-18T14:23:57.023Z,27.34
2023-07-18T14:26:23.783Z,27.31
2023-07-18T14:28:50.456Z,27.28
2023-07-18T14:31:17.098Z,27.26
2023-07-18T14:33:51.689Z,27.25
2023-07-18T14:36:31.516Z,27.26
2023-07-18T14:38:58.546Z,27.28
2023-07-18T14:41:25.886Z,27.29
2023-07-18T14:43:53.150Z,27.29
2023-07-18T14:46:20.206Z,27.30
2023-07-18T14:48:47.351Z,27.30
2023-07-18T14:51:14.402Z,27.29
2023-07-18T14:53:40.976Z,27.28
2023-07-18T14:56:08.186Z,27.29
2023-07-18T14:58:35.824Z,27.31
2023-07-18T15:01:05.146Z,27.34
2023-07-18T15:03:33.588Z,27.35
2023-07-18T15:06:00.962Z,27.36
2023-07-18T15:08:28.192Z,27.38
2023-07-18T15:10:55.180Z,27.40
2023-07-18T15:13:22.445Z,27.41
2023-07-18T15:15:49.600Z,27.41
2023-07-18T15:18:17.855Z,27.40
2023-07-18T15:20:44.600Z,27.38
2023-07-18T15:23:12.141Z,27.37
2023-07-18T15:25:39.411Z,27.37
2023-07-18T15:28:08.160Z,27.37
2023-07-18T15:30:34.783Z,27.36
2023-07-18T15:33:19.811Z,27.36
2023-07-18T15:35:48.375Z,27.36
2023-07-18T15:38:15.641Z,27.34
2023-07-18T15:40:42.687Z,27.33
2023-07-18T15:43:09.456Z,27.32
2023-07-18T15:45:37.152Z,27.29
2023-07-18T15:48:04.385Z,27.25
2023-07-18T15:50:34.093Z,27.23
2023-07-18T15:53:01.314Z,27.23
2023-07-18T15:55:28.117Z,27.22
2023-07-18T15:57:55.272Z,27.21
2023-07-18T16:00:22.423Z,27.20
2023-07-18T16:02:49.282Z,27.21
2023-07-18T16:05:19.346Z,27.21
2023-07-18T16:07:46.688Z,27.21
2023-07-18T16:10:13.607Z,27.19
2023-07-18T16:12:41.815Z,27.18
2023-07-18T16:15:12.043Z,27.18
2023-07-18T16:17:39.083Z,27.16
2023-07-18T16:20:06.486Z,27.15
2023-07-18T16:22:33.584Z,27.13
2023-07-18T16:25:05.005Z,27.10
2023-07-18T16:27:33.319Z,27.08
2023-07-18T16:30:00.537Z,27.07
2023-07-18T16:32:28.298Z,27.05
2023-07-18T16:34:56.409Z,27.04
2023-07-18T16:37:23.330Z,27.03
2023-07-18T16:39:52.409Z,27.03
2023-07-18T16:42:24.471Z,27.01
2023-07-18T16:44:51.512Z,26.99
2023-07-18T16:47:19.328Z,26.99
2023-07-18T16:49:47.218Z,26.97
2023-07-18T16:52:14.409Z,26.93
2023-07-18T16:54:41.199Z,26.91
2023-07-18T16:57:08.504Z,26.89
2023-07-18T16:59:36.062Z,26.86
2023-07-18T17:02:05.758Z,26.83
2023-07-18T17:04:33.943Z,26.79
2023-07-18T17:07:00.897Z,26.76
2023-07-18T17:09:27.690Z,26.73
2023-07-18T17:11:55.174Z,26.70
2023-07-18T17:14:22.349Z,26.66
2023-07-18T17:16:50.523Z,26.61
2023-07-18T17:19:17.332Z,26.56
2023-07-18T17:21:44.245Z,26.52
2023-07-18T17:24:11.494Z,26.47
2023-07-18T17:26:39.213Z,26.44
2023-07-18T17:29:06.266Z,26.40
2023-07-18T17:31:32.965Z,26.37
2023-07-18T17:34:02.505Z,26.36
2023-07-18T17:36:29.851Z,26.33
2023-07-18T17:38:56.613Z,26.31
2023-07-18T17:41:23.943Z,26.28
2023-07-18T17:43:50.916Z,26.24
2023-07-18T17:46:19.849Z,26.21
2023-07-18T17:48:46.640Z,26.17
2023-07-18T17:51:13.399Z,26.14
2023-07-18T17:53:40.420Z,26.12
2023-07-18T17:56:07.819Z,26.12
2023-07-18T17:58:35.471Z,26.13
2023-07-18T18:01:02.404Z,26.13
2023-07-18T18:03:29.614Z,26.13
2023-07-18T18:05:56.787Z,26.12
2023-07-18T18:08:24.856Z,26.08
2023-07-18T18:10:52.567Z,26.05
2023-07-18T18:13:19.568Z,26.02
2023-07-18T18:16:04.979Z,26.00
2023-07-18T18:18:33.120Z,25.98
2023-07-18T18:21:01.455Z,25.96
2023-07-18T18:23:38.423Z,25.92
2023-07-18T18:26:07.565Z,25.86
2023-07-18T18:28:34.681Z,25.81
2023-07-18T18:31:01.928Z,25.79
2023-07-18T18:33:29.558Z,25.78
2023-07-18T18:35:56.601Z,25.78
2023-07-18T18:38:23.822Z,25.76
2023-07-18T18:40:51.011Z,25.75
2023-07-18T18:43:17.874Z,25.72
2023-07-18T18:45:46.283Z,25.70
2023-07-18T18:48:13.558Z,25.67
2023-07-18T18:50:41.351Z,25.64
2023-07-18T18:53:08.408Z,25.58
2023-07-18T18:55:36.321Z,25.51
2023-07-18T18:58:03.588Z,25.45
2023-07-18T19:00:30.909Z,25.43
2023-07-18T19:02:58.711Z,25.41
2023-07-18T19:05:26.119Z,25.37
2023-07-18T19:07:53.298Z,25.34
2023-07-18T19:10:20.695Z,25.30
2023-07-18T19:12:48.129Z,25.27
2023-07-18T19:15:14.885Z,25.24
2023-07-18T19:17:42.484Z,25.22
2023-07-18T19:20:09.799Z,25.21
2023-07-18T19:22:36.990Z,25.21
2023-07-18T19:25:06.883Z,25.19
2023-07-18T19:27:33.730Z,25.17
2023-07-18T19:30:00.743Z,25.17
2023-07-18T19:32:27.490Z,25.14
2023-07-18T19:34:54.352Z,25.11
2023-07-18T19:37:21.271Z,25.09
2023-07-18T19:39:48.318Z,25.09
2023-07-18T19:42:15.262Z,25.07
2023-07-18T19:44:43.015Z,25.06
2023-07-18T19:47:10.766Z,25.04
2023-07-18T19:49:38.137Z,25.01
2023-07-18T19:52:05.809Z,25.00
2023-07-18T19:54:32.759Z,24.98
2023-07-18T19:56:59.433Z,24.96
2023-07-18T19:59:26.536Z,24.95
2023-07-18T20:01:53.282Z,24.93
2023-07-18T20:04:21.106Z,24.91
2023-07-18T20:06:49.114Z,24.87
2023-07-18T20:09:15.857Z,24.83
2023-07-18T20:11:43.520Z,24.80
2023-07-18T20:14:10.641Z,24.76
2023-07-18T20:16:39.337Z,24.73
2023-07-18T20:19:05.990Z,24.71
2023-07-18T20:21:33.465Z,24.69
2023-07-18T20:24:01.658Z,24.67
2023-07-18T20:26:29.155Z,24.64
2023-07-18T20:28:56.741Z,24.61
2023-07-18T20:31:23.975Z,24.61
2023-07-18T20:33:51.962Z,24.58
2023-07-18T20:36:19.429Z,24.55
2023-07-18T20:38:47.016Z,24.53
2023-07-18T20:41:13.925Z,24.51
2023-07-18T20:43:41.117Z,24.49
2023-07-18T20:46:18.956Z,24.47
2023-07-18T20:49:10.551Z,24.45
2023-07-18T20:51:42.517Z,24.42
2023-07-18T20:54:10.203Z,24.39
2023-07-18T20:57:04.247Z,24.36
2023-07-18T20:59:31.044Z,24.31
2023-07-18T21:02:00.456Z,24.27
2023-07-18T21:04:29.543Z,24.24
2023-07-18T21:06:56.547Z,24.19
2023-07-18T21:09:23.627Z,24.13
2023-07-18T21:11:52.555Z,24.08
2023-07-18T21:14:46.384Z,24.02
2023-07-18T21:17:45.424Z,23.93
2023-07-18T21:20:13.454Z,23.87
2023-07-18T21:22:41.154Z,23.81
2023-07-18T21:25:10.762Z,23.75
2023-07-18T21:27:37.594Z,23.71
2023-07-18T21:30:08.271Z,23.67
2023-07-18T21:32:40.213Z,23.63
2023-07-18T21:35:15.732Z,23.60
2023-07-18T21:37:42.488Z,23.58
2023-07-18T21:40:10.024Z,23.57
2023-07-18T21:42:38.402Z,23.55
2023-07-18T21:45:05.872Z,23.54
2023-07-18T21:47:33.081Z,23.53
2023-07-18T21:50:00.167Z,23.51
2023-07-18T21:52:27.938Z,23.49
2023-07-18T21:54:56.203Z,23.48
2023-07-18T21:57:23.030Z,23.46
2023-07-18T21:59:49.823Z,23.45
2023-07-18T22:02:19.924Z,23.42
2023-07-18T22:04:48.180Z,23.33
2023-07-18T22:07:14.898Z,23.17
2023-07-18T22:09:41.665Z,23.03
2023-07-18T22:12:08.770Z,22.91
2023-07-18T22:14:36.041Z,22.85
2023-07-18T22:17:03.051Z,22.81
2023-07-18T22:19:30.024Z,22.79
2023-07-18T22:21:57.513Z,22.72
2023-07-18T22:24:24.389Z,22.67
2023-07-18T22:26:51.427Z,22.64
2023-07-18T22:29:18.142Z,22.57
2023-07-18T22:31:44.712Z,22.51
2023-07-18T22:34:12.227Z,22.50
2023-07-18T22:36:39.200Z,22.51
2023-07-18T22:39:06.205Z,22.51
2023-07-18T22:41:33.016Z,22.49
2023-07-18T22:43:59.814Z,22.47
2023-07-18T22:46:26.853Z,22.44
2023-07-18T22:48:54.434Z,22.35
2023-07-18T22:51:21.854Z,22.31
2023-07-18T22:53:49.023Z,22.31
2023-07-18T22:56:17.103Z,22.30
2023-07-18T22:58:43.841Z,22.29
2023-07-18T23:01:10.728Z,22.29
2023-07-18T23:03:37.627Z,22.26
2023-07-18T23:06:04.380Z,22.23
2023-07-18T23:08:31.597Z,22.22
2023-07-18T23:11:03.274Z,22.20
2023-07-18T23:13:30.246Z,22.18
2023-07-18T23:15:56.861Z,22.16
2023-07-18T23:18:23.678Z,22.15
2023-07-18T23:20:50.670Z,22.15
2023-07-18T23:23:17.389Z,22.12
2023-07-18T23:25:45.064Z,22.10
2023-07-18T23:28:15.978Z,22.10
2023-07-18T23:30:44.448Z,22.08
2023-07-18T23:33:11.935Z,22.04
2023-07-18T23:35:39.175Z,22.02
2023-07-18T23:38:06.128Z,21.99
2023-07-18T23:40:33.105Z,21.95
2023-07-18T23:43:00.421Z,21.94
2023-07-18T23:45:28.012Z,21.92
2023-07-18T23:47:54.764Z,21.91
2023-07-18T23:50:21.487Z,21.90
2023-07-18T23:52:48.547Z,21.88
2023-07-18T23:55:15.148Z,21.86
2023-07-18T23:57:42.193Z,21.85
